sensor_id;sensor_type;location;lat;lon;timestamp;temperature;humidity
1468;DHT22;727;48.892;9.544;2022-10-16T00:02:19;14.50;99.90
1468;DHT22;727;48.892;9.544;2022-10-16T00:04:45;14.50;99.90
1468;DHT22;727;48.892;9.544;2022-10-16T00:07:12;14.50;99.90
1468;DHT22;727;48.892;9.544;2022-10-16T00:09:39;14.50;99.90
1468;DHT22;727;48.892;9.544;2022-10-16T00:12:06;14.60;99.90
1468;DHT22;727;48.892;9.544;2022-10-16T00:14:33;14.60;99.90
1468;DHT22;727;48.892;9.544;2022-10-16T00:17:01;14.50;99.90
1468;DHT22;727;48.892;9.544;2022-10-16T00:19:28;14.50;99.90
1468;DHT22;727;48.892;9.544;2022-10-16T00:21:55;14.60;99.90
1468;DHT22;727;48.892;9.544;2022-10-16T00:24:22;14.50;99.90
1468;DHT22;727;48.892;9.544;2022-10-16T00:26:50;14.60;99.90
1468;DHT22;727;48.892;9.544;2022-10-16T00:29:17;14.60;99.90
1468;DHT22;727;48.892;9.544;2022-10-16T00:31:44;14.60;99.90
1468;DHT22;727;48.892;9.544;2022-10-16T00:34:12;14.60;99.90
1468;DHT22;727;48.892;9.544;2022-10-16T00:36:38;14.60;99.90
1468;DHT22;727;48.892;9.544;2022-10-16T00:39:05;14.60;99.90
1468;DHT22;727;48.892;9.544;2022-10-16T00:41:33;14.60;99.90
1468;DHT22;727;48.892;9.544;2022-10-16T00:44:01;14.60;99.90
1468;DHT22;727;48.892;9.544;2022-10-16T00:46:29;14.50;99.90
1468;DHT22;727;48.892;9.544;2022-10-16T00:49:02;14.50;99.90
1468;DHT22;727;48.892;9.544;2022-10-16T00:51:33;14.40;99.90
1468;DHT22;727;48.892;9.544;2022-10-16T00:54:01;14.40;99.90
1468;DHT22;727;48.892;9.544;2022-10-16T00:56:28;14.40;99.90
1468;DHT22;727;48.892;9.544;2022-10-16T00:58:55;14.30;99.90
1468;DHT22;727;48.892;9.544;2022-10-16T01:01:22;14.30;99.90
1468;DHT22;727;48.892;9.544;2022-10-16T01:03:49;14.30;99.90
1468;DHT22;727;48.892;9.544;2022-10-16T01:06:24;14.30;99.90
1468;DHT22;727;48.892;9.544;2022-10-16T01:09:06;14.30;99.90
1468;DHT22;727;48.892;9.544;2022-10-16T01:11:41;14.30;99.90
1468;DHT22;727;48.892;9.544;2022-10-16T01:14:14;14.20;99.90
1468;DHT22;727;48.892;9.544;2022-10-16T01:16:49;14.20;99.90
1468;DHT22;727;48.892;9.544;2022-10-16T01:19:31;14.20;99.90
1468;DHT22;727;48.892;9.544;2022-10-16T01:22:03;14.10;99.90
1468;DHT22;727;48.892;9.544;2022-10-16T01:24:38;14.10;99.90
1468;DHT22;727;48.892;9.544;2022-10-16T01:27:09;14.10;99.90
1468;DHT22;727;48.892;9.544;2022-10-16T01:29:42;14.00;99.90
1468;DHT22;727;48.892;9.544;2022-10-16T01:32:17;14.00;99.90
1468;DHT22;727;48.892;9.544;2022-10-16T01:34:49;14.10;99.90
1468;DHT22;727;48.892;9.544;2022-10-16T01:37:25;14.00;99.90
1468;DHT22;727;48.892;9.544;2022-10-16T01:39:56;14.00;99.90
1468;DHT22;727;48.892;9.544;2022-10-16T01:42:29;14.00;99.90
1468;DHT22;727;48.892;9.544;2022-10-16T01:44:58;14.00;99.90
1468;DHT22;727;48.892;9.544;2022-10-16T01:47:26;14.00;99.90
1468;DHT22;727;48.892;9.544;2022-10-16T01:49:54;14.10;99.90
1468;DHT22;727;48.892;9.544;2022-10-16T01:52:23;14.10;99.90
1468;DHT22;727;48.892;9.544;2022-10-16T01:54:54;14.10;99.90
1468;DHT22;727;48.892;9.544;2022-10-16T01:57:25;14.10;99.90
1468;DHT22;727;48.892;9.544;2022-10-16T01:59:56;14.20;99.90
1468;DHT22;727;48.892;9.544;2022-10-16T02:02:23;14.20;99.90
1468;DHT22;727;48.892;9.544;2022-10-16T02:04:57;14.20;99.90
1468;DHT22;727;48.892;9.544;2022-10-16T02:07:24;14.20;99.90
1468;DHT22;727;48.892;9.544;2022-10-16T02:09:51;14.20;99.90
1468;DHT22;727;48.892;9.544;2022-10-16T02:12:22;14.10;99.90
1468;DHT22;727;48.892;9.544;2022-10-16T02:14:52;14.10;99.90
1468;DHT22;727;48.892;9.544;2022-10-16T02:17:21;14.10;99.90
1468;DHT22;727;48.892;9.544;2022-10-16T02:19:50;14.10;99.90
1468;DHT22;727;48.892;9.544;2022-10-16T02:22:22;14.10;99.90
1468;DHT22;727;48.892;9.544;2022-10-16T02:24:54;14.00;99.90
1468;DHT22;727;48.892;9.544;2022-10-16T02:27:26;14.10;99.90
1468;DHT22;727;48.892;9.544;2022-10-16T02:29:58;14.00;99.90
1468;DHT22;727;48.892;9.544;2022-10-16T02:32:30;14.10;99.90
1468;DHT22;727;48.892;9.544;2022-10-16T02:34:59;14.10;99.90
1468;DHT22;727;48.892;9.544;2022-10-16T02:37:27;14.10;99.90
1468;DHT22;727;48.892;9.544;2022-10-16T02:39:55;14.10;99.90
1468;DHT22;727;48.892;9.544;2022-10-16T02:42:27;14.20;99.90
1468;DHT22;727;48.892;9.544;2022-10-16T02:44:56;14.20;99.90
1468;DHT22;727;48.892;9.544;2022-10-16T02:47:23;14.20;99.90
1468;DHT22;727;48.892;9.544;2022-10-16T02:49:49;14.20;99.90
1468;DHT22;727;48.892;9.544;2022-10-16T02:52:16;14.20;99.90
1468;DHT22;727;48.892;9.544;2022-10-16T02:54:43;14.20;99.90
1468;DHT22;727;48.892;9.544;2022-10-16T02:57:09;14.20;99.90
1468;DHT22;727;48.892;9.544;2022-10-16T02:59:37;14.20;99.90
1468;DHT22;727;48.892;9.544;2022-10-16T03:02:05;14.20;99.90
1468;DHT22;727;48.892;9.544;2022-10-16T03:04:32;14.20;99.90
1468;DHT22;727;48.892;9.544;2022-10-16T03:06:58;14.20;99.90
1468;DHT22;727;48.892;9.544;2022-10-16T03:09:25;14.20;99.90
1468;DHT22;727;48.892;9.544;2022-10-16T03:11:52;14.20;99.90
1468;DHT22;727;48.892;9.544;2022-10-16T03:14:19;14.20;99.90
1468;DHT22;727;48.892;9.544;2022-10-16T03:16:45;14.20;99.90
1468;DHT22;727;48.892;9.544;2022-10-16T03:19:13;14.20;99.90
1468;DHT22;727;48.892;9.544;2022-10-16T03:21:42;14.20;99.90
1468;DHT22;727;48.892;9.544;2022-10-16T03:24:08;14.20;99.90
1468;DHT22;727;48.892;9.544;2022-10-16T03:26:35;14.20;99.90
1468;DHT22;727;48.892;9.544;2022-10-16T03:29:02;14.20;99.90
1468;DHT22;727;48.892;9.544;2022-10-16T03:31:30;14.20;99.90
1468;DHT22;727;48.892;9.544;2022-10-16T03:33:56;14.10;99.90
1468;DHT22;727;48.892;9.544;2022-10-16T03:36:24;14.10;99.90
1468;DHT22;727;48.892;9.544;2022-10-16T03:38:51;14.10;99.90
1468;DHT22;727;48.892;9.544;2022-10-16T03:41:18;14.10;99.90
1468;DHT22;727;48.892;9.544;2022-10-16T03:43:45;14.00;99.90
1468;DHT22;727;48.892;9.544;2022-10-16T03:46:11;14.00;99.90
1468;DHT22;727;48.892;9.544;2022-10-16T03:48:38;14.00;99.90
1468;DHT22;727;48.892;9.544;2022-10-16T03:51:05;14.00;99.90
1468;DHT22;727;48.892;9.544;2022-10-16T03:53:33;13.90;99.90
1468;DHT22;727;48.892;9.544;2022-10-16T03:56:00;13.90;99.90
1468;DHT22;727;48.892;9.544;2022-10-16T03:58:27;13.90;99.90
1468;DHT22;727;48.892;9.544;2022-10-16T04:00:53;13.90;99.90
1468;DHT22;727;48.892;9.544;2022-10-16T04:03:20;13.90;99.90
1468;DHT22;727;48.892;9.544;2022-10-16T04:05:48;13.90;99.90
1468;DHT22;727;48.892;9.544;2022-10-16T04:08:15;13.80;99.90
1468;DHT22;727;48.892;9.544;2022-10-16T04:10:43;13.80;99.90
1468;DHT22;727;48.892;9.544;2022-10-16T04:13:10;13.80;99.90
1468;DHT22;727;48.892;9.544;2022-10-16T04:15:37;13.80;99.90
1468;DHT22;727;48.892;9.544;2022-10-16T04:18:04;13.70;99.90
1468;DHT22;727;48.892;9.544;2022-10-16T04:20:31;13.70;99.90
1468;DHT22;727;48.892;9.544;2022-10-16T04:22:58;13.70;99.90
1468;DHT22;727;48.892;9.544;2022-10-16T04:25:25;13.70;99.90
1468;DHT22;727;48.892;9.544;2022-10-16T04:27:54;13.60;99.90
1468;DHT22;727;48.892;9.544;2022-10-16T04:30:21;13.60;99.90
1468;DHT22;727;48.892;9.544;2022-10-16T04:32:48;13.60;99.90
1468;DHT22;727;48.892;9.544;2022-10-16T04:35:15;13.70;99.90
1468;DHT22;727;48.892;9.544;2022-10-16T04:37:42;13.60;99.90
1468;DHT22;727;48.892;9.544;2022-10-16T04:40:09;13.60;99.90
1468;DHT22;727;48.892;9.544;2022-10-16T04:42:36;13.60;99.90
1468;DHT22;727;48.892;9.544;2022-10-16T04:45:05;13.60;99.90
1468;DHT22;727;48.892;9.544;2022-10-16T04:47:32;13.50;99.90
1468;DHT22;727;48.892;9.544;2022-10-16T04:49:59;13.50;99.90
1468;DHT22;727;48.892;9.544;2022-10-16T04:52:27;13.50;99.90
1468;DHT22;727;48.892;9.544;2022-10-16T04:54:54;13.60;99.90
1468;DHT22;727;48.892;9.544;2022-10-16T04:57:25;13.60;99.90
1468;DHT22;727;48.892;9.544;2022-10-16T04:59:52;13.60;99.90
1468;DHT22;727;48.892;9.544;2022-10-16T05:02:20;13.60;99.90
1468;DHT22;727;48.892;9.544;2022-10-16T05:04:47;13.60;99.90
1468;DHT22;727;48.892;9.544;2022-10-16T05:07:14;13.60;99.90
1468;DHT22;727;48.892;9.544;2022-10-16T05:09:40;13.70;99.90
1468;DHT22;727;48.892;9.544;2022-10-16T05:12:07;13.60;99.90
1468;DHT22;727;48.892;9.544;2022-10-16T05:14:34;13.60;99.90
1468;DHT22;727;48.892;9.544;2022-10-16T05:17:00;13.60;99.90
1468;DHT22;727;48.892;9.544;2022-10-16T05:19:29;13.60;99.90
1468;DHT22;727;48.892;9.544;2022-10-16T05:21:55;13.70;99.90
1468;DHT22;727;48.892;9.544;2022-10-16T05:24:22;13.60;99.90
1468;DHT22;727;48.892;9.544;2022-10-16T05:26:50;13.60;99.90
1468;DHT22;727;48.892;9.544;2022-10-16T05:29:16;13.60;99.90
1468;DHT22;727;48.892;9.544;2022-10-16T05:31:43;13.60;99.90
1468;DHT22;727;48.892;9.544;2022-10-16T05:34:10;13.60;99.90
1468;DHT22;727;48.892;9.544;2022-10-16T05:36:38;13.60;99.90
1468;DHT22;727;48.892;9.544;2022-10-16T05:39:04;13.60;99.90
1468;DHT22;727;48.892;9.544;2022-10-16T05:41:31;13.60;99.90
1468;DHT22;727;48.892;9.544;2022-10-16T05:43:58;13.60;99.90
1468;DHT22;727;48.892;9.544;2022-10-16T05:46:25;13.70;99.90
1468;DHT22;727;48.892;9.544;2022-10-16T05:48:52;13.70;99.90
1468;DHT22;727;48.892;9.544;2022-10-16T05:51:19;13.70;99.90
1468;DHT22;727;48.892;9.544;2022-10-16T05:53:47;13.70;99.90
1468;DHT22;727;48.892;9.544;2022-10-16T05:56:14;13.80;99.90
1468;DHT22;727;48.892;9.544;2022-10-16T05:58:41;13.80;99.90
1468;DHT22;727;48.892;9.544;2022-10-16T06:01:11;13.80;99.90
1468;DHT22;727;48.892;9.544;2022-10-16T06:03:38;13.80;99.90
1468;DHT22;727;48.892;9.544;2022-10-16T06:06:09;13.80;99.90
1468;DHT22;727;48.892;9.544;2022-10-16T06:08:36;13.80;99.90
1468;DHT22;727;48.892;9.544;2022-10-16T06:11:06;13.80;99.90
1468;DHT22;727;48.892;9.544;2022-10-16T06:13:33;13.80;99.90
1468;DHT22;727;48.892;9.544;2022-10-16T06:16:01;13.90;99.90
1468;DHT22;727;48.892;9.544;2022-10-16T06:18:28;14.00;99.90
1468;DHT22;727;48.892;9.544;2022-10-16T06:20:56;14.10;99.90
1468;DHT22;727;48.892;9.544;2022-10-16T06:23:24;14.10;99.90
1468;DHT22;727;48.892;9.544;2022-10-16T06:25:50;14.20;99.90
1468;DHT22;727;48.892;9.544;2022-10-16T06:28:19;14.20;99.90
1468;DHT22;727;48.892;9.544;2022-10-16T06:30:45;14.30;99.90
1468;DHT22;727;48.892;9.544;2022-10-16T06:33:12;14.30;99.90
1468;DHT22;727;48.892;9.544;2022-10-16T06:35:39;14.30;99.90
1468;DHT22;727;48.892;9.544;2022-10-16T06:38:06;14.40;99.90
1468;DHT22;727;48.892;9.544;2022-10-16T06:40:32;14.50;99.90
1468;DHT22;727;48.892;9.544;2022-10-16T06:42:59;14.50;99.90
1468;DHT22;727;48.892;9.544;2022-10-16T06:45:27;14.50;99.90
1468;DHT22;727;48.892;9.544;2022-10-16T06:47:54;14.60;99.90
1468;DHT22;727;48.892;9.544;2022-10-16T06:50:21;14.60;99.90
1468;DHT22;727;48.892;9.544;2022-10-16T06:52:47;14.70;99.90
1468;DHT22;727;48.892;9.544;2022-10-16T06:55:14;14.80;99.90
1468;DHT22;727;48.892;9.544;2022-10-16T06:57:42;14.90;99.90
1468;DHT22;727;48.892;9.544;2022-10-16T07:00:10;14.90;99.90
1468;DHT22;727;48.892;9.544;2022-10-16T07:02:38;15.00;99.90
1468;DHT22;727;48.892;9.544;2022-10-16T07:05:05;15.10;99.90
1468;DHT22;727;48.892;9.544;2022-10-16T07:07:32;15.20;99.90
1468;DHT22;727;48.892;9.544;2022-10-16T07:09:58;15.40;99.90
1468;DHT22;727;48.892;9.544;2022-10-16T07:12:25;15.40;99.90
1468;DHT22;727;48.892;9.544;2022-10-16T07:14:52;15.50;99.90
1468;DHT22;727;48.892;9.544;2022-10-16T07:17:20;15.40;99.90
1468;DHT22;727;48.892;9.544;2022-10-16T07:19:49;15.40;99.90
1468;DHT22;727;48.892;9.544;2022-10-16T07:22:18;15.40;99.90
1468;DHT22;727;48.892;9.544;2022-10-16T07:24:44;15.50;99.90
1468;DHT22;727;48.892;9.544;2022-10-16T07:27:11;15.50;99.90
1468;DHT22;727;48.892;9.544;2022-10-16T07:29:38;15.60;99.90
1468;DHT22;727;48.892;9.544;2022-10-16T07:32:04;15.60;99.90
1468;DHT22;727;48.892;9.544;2022-10-16T07:34:31;15.60;99.90
1468;DHT22;727;48.892;9.544;2022-10-16T07:36:59;15.70;99.90
1468;DHT22;727;48.892;9.544;2022-10-16T07:39:26;15.70;99.90
1468;DHT22;727;48.892;9.544;2022-10-16T07:41:53;15.90;99.90
1468;DHT22;727;48.892;9.544;2022-10-16T07:44:19;15.90;99.90
1468;DHT22;727;48.892;9.544;2022-10-16T07:46:46;16.00;99.90
1468;DHT22;727;48.892;9.544;2022-10-16T07:49:13;16.00;99.90
1468;DHT22;727;48.892;9.544;2022-10-16T07:51:40;16.10;99.90
1468;DHT22;727;48.892;9.544;2022-10-16T07:54:09;16.10;99.90
1468;DHT22;727;48.892;9.544;2022-10-16T07:56:36;16.10;99.90
1468;DHT22;727;48.892;9.544;2022-10-16T07:59:03;16.10;99.90
1468;DHT22;727;48.892;9.544;2022-10-16T08:01:29;16.00;99.90
1468;DHT22;727;48.892;9.544;2022-10-16T08:03:56;16.00;99.90
1468;DHT22;727;48.892;9.544;2022-10-16T08:06:23;15.90;99.90
1468;DHT22;727;48.892;9.544;2022-10-16T08:08:50;15.80;99.90
1468;DHT22;727;48.892;9.544;2022-10-16T08:11:18;15.80;99.90
1468;DHT22;727;48.892;9.544;2022-10-16T08:13:44;15.70;99.90
1468;DHT22;727;48.892;9.544;2022-10-16T08:16:11;15.80;99.90
1468;DHT22;727;48.892;9.544;2022-10-16T08:18:39;15.80;99.90
1468;DHT22;727;48.892;9.544;2022-10-16T08:21:07;15.90;99.90
1468;DHT22;727;48.892;9.544;2022-10-16T08:23:34;16.00;99.90
1468;DHT22;727;48.892;9.544;2022-10-16T08:26:06;16.10;99.90
1468;DHT22;727;48.892;9.544;2022-10-16T08:28:34;16.20;99.90
1468;DHT22;727;48.892;9.544;2022-10-16T08:31:06;16.30;99.90
1468;DHT22;727;48.892;9.544;2022-10-16T08:33:32;16.50;99.90
1468;DHT22;727;48.892;9.544;2022-10-16T08:36:00;16.70;99.90
1468;DHT22;727;48.892;9.544;2022-10-16T08:38:27;16.80;99.90
1468;DHT22;727;48.892;9.544;2022-10-16T08:41:00;16.90;99.90
1468;DHT22;727;48.892;9.544;2022-10-16T08:43:49;17.00;99.90
1468;DHT22;727;48.892;9.544;2022-10-16T08:46:34;17.20;99.90
1468;DHT22;727;48.892;9.544;2022-10-16T08:49:09;17.70;99.90
1468;DHT22;727;48.892;9.544;2022-10-16T08:51:37;18.80;99.90
1468;DHT22;727;48.892;9.544;2022-10-16T08:54:06;19.40;99.90
1468;DHT22;727;48.892;9.544;2022-10-16T08:56:38;19.80;99.90
1468;DHT22;727;48.892;9.544;2022-10-16T08:59:10;20.50;99.90
1468;DHT22;727;48.892;9.544;2022-10-16T09:01:40;20.70;99.90
1468;DHT22;727;48.892;9.544;2022-10-16T09:04:40;20.80;99.90
1468;DHT22;727;48.892;9.544;2022-10-16T09:07:15;20.70;99.90
1468;DHT22;727;48.892;9.544;2022-10-16T09:10:02;20.60;99.90
1468;DHT22;727;48.892;9.544;2022-10-16T09:12:36;20.30;99.90
1468;DHT22;727;48.892;9.544;2022-10-16T09:15:14;20.00;99.90
1468;DHT22;727;48.892;9.544;2022-10-16T09:17:50;19.70;99.90
1468;DHT22;727;48.892;9.544;2022-10-16T09:20:38;19.40;99.90
1468;DHT22;727;48.892;9.544;2022-10-16T09:23:14;19.20;99.90
1468;DHT22;727;48.892;9.544;2022-10-16T09:25:44;19.00;99.90
1468;DHT22;727;48.892;9.544;2022-10-16T09:28:13;18.90;99.90
1468;DHT22;727;48.892;9.544;2022-10-16T09:30:41;18.80;99.90
1468;DHT22;727;48.892;9.544;2022-10-16T09:33:10;18.70;99.90
1468;DHT22;727;48.892;9.544;2022-10-16T09:35:39;18.70;99.90
1468;DHT22;727;48.892;9.544;2022-10-16T09:38:06;18.60;99.90
1468;DHT22;727;48.892;9.544;2022-10-16T09:40:35;18.80;99.90
1468;DHT22;727;48.892;9.544;2022-10-16T09:43:11;19.00;99.90
1468;DHT22;727;48.892;9.544;2022-10-16T09:45:41;19.30;99.90
1468;DHT22;727;48.892;9.544;2022-10-16T09:48:13;20.30;99.90
1468;DHT22;727;48.892;9.544;2022-10-16T09:50:39;20.90;99.90
1468;DHT22;727;48.892;9.544;2022-10-16T09:53:11;21.20;99.90
1468;DHT22;727;48.892;9.544;2022-10-16T09:55:48;21.30;99.90
1468;DHT22;727;48.892;9.544;2022-10-16T09:58:15;21.20;99.90
1468;DHT22;727;48.892;9.544;2022-10-16T10:00:49;22.50;99.90
1468;DHT22;727;48.892;9.544;2022-10-16T10:03:33;23.40;99.90
1468;DHT22;727;48.892;9.544;2022-10-16T10:06:02;22.80;99.90
1468;DHT22;727;48.892;9.544;2022-10-16T10:08:31;22.10;99.90
1468;DHT22;727;48.892;9.544;2022-10-16T10:10:57;22.80;99.90
1468;DHT22;727;48.892;9.544;2022-10-16T10:13:24;24.60;99.90
1468;DHT22;727;48.892;9.544;2022-10-16T10:15:54;26.70;99.40
1468;DHT22;727;48.892;9.544;2022-10-16T10:18:22;28.70;93.80
1468;DHT22;727;48.892;9.544;2022-10-16T10:20:57;30.40;90.00
1468;DHT22;727;48.892;9.544;2022-10-16T10:23:26;31.50;82.30
1468;DHT22;727;48.892;9.544;2022-10-16T10:25:57;32.30;76.00
1468;DHT22;727;48.892;9.544;2022-10-16T10:28:47;32.50;71.60
1468;DHT22;727;48.892;9.544;2022-10-16T10:31:22;31.80;69.40
1468;DHT22;727;48.892;9.544;2022-10-16T10:33:55;30.00;75.20
1468;DHT22;727;48.892;9.544;2022-10-16T10:36:32;29.10;75.10
1468;DHT22;727;48.892;9.544;2022-10-16T10:39:01;29.50;79.20
1468;DHT22;727;48.892;9.544;2022-10-16T10:41:46;30.50;72.80
1468;DHT22;727;48.892;9.544;2022-10-16T10:44:19;31.90;68.30
1468;DHT22;727;48.892;9.544;2022-10-16T10:46:50;31.40;67.50
1468;DHT22;727;48.892;9.544;2022-10-16T10:49:34;31.60;68.40
1468;DHT22;727;48.892;9.544;2022-10-16T10:52:22;31.30;67.30
1468;DHT22;727;48.892;9.544;2022-10-16T10:54:58;32.10;63.80
1468;DHT22;727;48.892;9.544;2022-10-16T10:57:29;31.70;64.30
1468;DHT22;727;48.892;9.544;2022-10-16T11:00:03;30.90;66.80
1468;DHT22;727;48.892;9.544;2022-10-16T11:02:41;30.10;66.40
1468;DHT22;727;48.892;9.544;2022-10-16T11:05:27;29.60;70.00
1468;DHT22;727;48.892;9.544;2022-10-16T11:07:57;29.00;70.30
1468;DHT22;727;48.892;9.544;2022-10-16T11:10:27;28.60;72.70
1468;DHT22;727;48.892;9.544;2022-10-16T11:12:58;28.90;72.00
1468;DHT22;727;48.892;9.544;2022-10-16T11:15:30;30.00;69.30
1468;DHT22;727;48.892;9.544;2022-10-16T11:18:04;31.20;66.80
1468;DHT22;727;48.892;9.544;2022-10-16T11:20:34;32.30;68.00
1468;DHT22;727;48.892;9.544;2022-10-16T11:23:10;33.50;64.50
1468;DHT22;727;48.892;9.544;2022-10-16T11:25:39;34.20;57.80
1468;DHT22;727;48.892;9.544;2022-10-16T11:28:10;34.40;58.30
1468;DHT22;727;48.892;9.544;2022-10-16T11:30:43;35.20;52.70
1468;DHT22;727;48.892;9.544;2022-10-16T11:33:24;35.10;51.80
1468;DHT22;727;48.892;9.544;2022-10-16T11:35:54;34.60;53.80
1468;DHT22;727;48.892;9.544;2022-10-16T11:38:27;34.40;52.50
1468;DHT22;727;48.892;9.544;2022-10-16T11:40:59;33.60;54.80
1468;DHT22;727;48.892;9.544;2022-10-16T11:43:32;33.90;54.30
1468;DHT22;727;48.892;9.544;2022-10-16T11:46:04;34.30;53.90
1468;DHT22;727;48.892;9.544;2022-10-16T11:48:38;34.30;53.70
1468;DHT22;727;48.892;9.544;2022-10-16T11:51:14;34.20;53.30
1468;DHT22;727;48.892;9.544;2022-10-16T11:53:46;34.00;54.60
1468;DHT22;727;48.892;9.544;2022-10-16T11:56:20;33.70;54.40
1468;DHT22;727;48.892;9.544;2022-10-16T11:58:54;34.30;54.70
1468;DHT22;727;48.892;9.544;2022-10-16T12:01:28;34.70;51.60
1468;DHT22;727;48.892;9.544;2022-10-16T12:04:07;34.50;51.40
1468;DHT22;727;48.892;9.544;2022-10-16T12:06:43;34.20;55.60
1468;DHT22;727;48.892;9.544;2022-10-16T12:09:18;34.60;52.80
1468;DHT22;727;48.892;9.544;2022-10-16T12:11:47;34.80;50.90
1468;DHT22;727;48.892;9.544;2022-10-16T12:14:36;33.70;52.50
1468;DHT22;727;48.892;9.544;2022-10-16T12:17:22;33.10;54.60
1468;DHT22;727;48.892;9.544;2022-10-16T12:19:59;33.60;53.40
1468;DHT22;727;48.892;9.544;2022-10-16T12:22:28;33.50;52.90
1468;DHT22;727;48.892;9.544;2022-10-16T12:24:55;32.80;54.20
1468;DHT22;727;48.892;9.544;2022-10-16T12:27:27;32.30;55.30
1468;DHT22;727;48.892;9.544;2022-10-16T12:29:56;31.60;57.60
1468;DHT22;727;48.892;9.544;2022-10-16T12:32:29;31.00;57.20
1468;DHT22;727;48.892;9.544;2022-10-16T12:34:58;31.10;59.40
1468;DHT22;727;48.892;9.544;2022-10-16T12:37:28;31.40;57.00
1468;DHT22;727;48.892;9.544;2022-10-16T12:39:57;31.30;56.90
1468;DHT22;727;48.892;9.544;2022-10-16T12:42:33;31.20;57.90
1468;DHT22;727;48.892;9.544;2022-10-16T12:45:01;31.10;58.30
1468;DHT22;727;48.892;9.544;2022-10-16T12:47:47;31.30;56.50
1468;DHT22;727;48.892;9.544;2022-10-16T12:50:28;31.70;55.00
1468;DHT22;727;48.892;9.544;2022-10-16T12:52:56;30.30;56.90
1468;DHT22;727;48.892;9.544;2022-10-16T12:55:23;28.90;60.00
1468;DHT22;727;48.892;9.544;2022-10-16T12:58:04;28.10;67.20
1468;DHT22;727;48.892;9.544;2022-10-16T13:00:39;27.90;65.20
1468;DHT22;727;48.892;9.544;2022-10-16T13:06:29;28.20;63.80
1468;DHT22;727;48.892;9.544;2022-10-16T13:09:08;28.50;62.80
1468;DHT22;727;48.892;9.544;2022-10-16T13:11:52;28.30;68.90
1468;DHT22;727;48.892;9.544;2022-10-16T13:14:33;29.20;63.10
1468;DHT22;727;48.892;9.544;2022-10-16T13:17:10;29.70;63.00
1468;DHT22;727;48.892;9.544;2022-10-16T13:19:42;30.20;62.50
1468;DHT22;727;48.892;9.544;2022-10-16T13:22:20;30.10;63.70
1468;DHT22;727;48.892;9.544;2022-10-16T13:24:58;29.40;65.20
1468;DHT22;727;48.892;9.544;2022-10-16T13:27:34;28.80;68.50
1468;DHT22;727;48.892;9.544;2022-10-16T13:30:11;29.10;68.00
1468;DHT22;727;48.892;9.544;2022-10-16T13:32:39;28.70;67.80
1468;DHT22;727;48.892;9.544;2022-10-16T13:35:18;28.20;69.10
1468;DHT22;727;48.892;9.544;2022-10-16T13:37:47;27.60;71.00
1468;DHT22;727;48.892;9.544;2022-10-16T13:40:19;27.20;71.60
1468;DHT22;727;48.892;9.544;2022-10-16T13:42:46;27.00;73.90
1468;DHT22;727;48.892;9.544;2022-10-16T13:45:19;26.60;75.80
1468;DHT22;727;48.892;9.544;2022-10-16T13:47:46;26.40;76.90
1468;DHT22;727;48.892;9.544;2022-10-16T13:50:15;26.00;79.50
1468;DHT22;727;48.892;9.544;2022-10-16T13:52:42;25.60;81.40
1468;DHT22;727;48.892;9.544;2022-10-16T13:55:12;25.20;84.30
1468;DHT22;727;48.892;9.544;2022-10-16T13:57:39;24.90;87.60
1468;DHT22;727;48.892;9.544;2022-10-16T14:00:18;24.60;90.00
1468;DHT22;727;48.892;9.544;2022-10-16T14:02:50;24.40;91.10
1468;DHT22;727;48.892;9.544;2022-10-16T14:05:18;24.00;92.00
1468;DHT22;727;48.892;9.544;2022-10-16T14:07:49;23.60;93.10
1468;DHT22;727;48.892;9.544;2022-10-16T14:10:23;23.40;95.00
1468;DHT22;727;48.892;9.544;2022-10-16T14:12:55;23.20;96.40
1468;DHT22;727;48.892;9.544;2022-10-16T14:15:22;23.20;97.40
1468;DHT22;727;48.892;9.544;2022-10-16T14:17:51;23.20;98.10
1468;DHT22;727;48.892;9.544;2022-10-16T14:20:20;23.20;98.60
1468;DHT22;727;48.892;9.544;2022-10-16T14:22:58;23.20;99.00
1468;DHT22;727;48.892;9.544;2022-10-16T14:25:29;23.30;99.40
1468;DHT22;727;48.892;9.544;2022-10-16T14:28:01;23.20;99.60
1468;DHT22;727;48.892;9.544;2022-10-16T14:30:28;23.10;99.70
1468;DHT22;727;48.892;9.544;2022-10-16T14:32:58;23.00;99.80
1468;DHT22;727;48.892;9.544;2022-10-16T14:35:30;22.80;99.90
1468;DHT22;727;48.892;9.544;2022-10-16T14:37:59;22.70;99.90
1468;DHT22;727;48.892;9.544;2022-10-16T14:40:30;22.60;99.90
1468;DHT22;727;48.892;9.544;2022-10-16T14:42:57;22.50;99.90
1468;DHT22;727;48.892;9.544;2022-10-16T14:45:27;22.40;99.90
1468;DHT22;727;48.892;9.544;2022-10-16T14:47:56;22.20;99.90
1468;DHT22;727;48.892;9.544;2022-10-16T14:50:23;22.20;99.90
1468;DHT22;727;48.892;9.544;2022-10-16T14:52:50;22.10;99.90
1468;DHT22;727;48.892;9.544;2022-10-16T14:55:18;22.00;99.90
1468;DHT22;727;48.892;9.544;2022-10-16T14:57:47;22.00;99.90
1468;DHT22;727;48.892;9.544;2022-10-16T15:00:17;21.80;99.90
1468;DHT22;727;48.892;9.544;2022-10-16T15:02:46;21.70;99.90
1468;DHT22;727;48.892;9.544;2022-10-16T15:05:16;21.60;99.90
1468;DHT22;727;48.892;9.544;2022-10-16T15:07:44;21.50;99.90
1468;DHT22;727;48.892;9.544;2022-10-16T15:10:11;21.40;99.90
1468;DHT22;727;48.892;9.544;2022-10-16T15:12:39;21.30;99.90
1468;DHT22;727;48.892;9.544;2022-10-16T15:15:31;21.30;99.90
1468;DHT22;727;48.892;9.544;2022-10-16T15:17:59;21.30;99.90
1468;DHT22;727;48.892;9.544;2022-10-16T15:20:29;21.10;99.90
1468;DHT22;727;48.892;9.544;2022-10-16T15:22:59;21.00;99.90
1468;DHT22;727;48.892;9.544;2022-10-16T15:25:32;20.90;99.90
1468;DHT22;727;48.892;9.544;2022-10-16T15:28:00;20.90;99.90
1468;DHT22;727;48.892;9.544;2022-10-16T15:30:28;20.80;99.90
1468;DHT22;727;48.892;9.544;2022-10-16T15:32:56;20.70;99.90
1468;DHT22;727;48.892;9.544;2022-10-16T15:35:22;20.60;99.90
1468;DHT22;727;48.892;9.544;2022-10-16T15:37:49;20.60;99.90
1468;DHT22;727;48.892;9.544;2022-10-16T15:40:16;20.50;99.90
1468;DHT22;727;48.892;9.544;2022-10-16T15:42:43;20.40;99.90
1468;DHT22;727;48.892;9.544;2022-10-16T15:45:11;20.20;99.90
1468;DHT22;727;48.892;9.544;2022-10-16T15:47:38;20.20;99.90
1468;DHT22;727;48.892;9.544;2022-10-16T15:50:09;20.10;99.90
1468;DHT22;727;48.892;9.544;2022-10-16T15:52:37;20.10;99.90
1468;DHT22;727;48.892;9.544;2022-10-16T15:55:05;19.90;99.90
1468;DHT22;727;48.892;9.544;2022-10-16T15:57:32;19.80;99.90
1468;DHT22;727;48.892;9.544;2022-10-16T15:59:58;19.70;99.90
1468;DHT22;727;48.892;9.544;2022-10-16T16:02:25;19.50;99.90
1468;DHT22;727;48.892;9.544;2022-10-16T16:04:52;19.40;99.90
1468;DHT22;727;48.892;9.544;2022-10-16T16:07:20;19.30;99.90
1468;DHT22;727;48.892;9.544;2022-10-16T16:09:46;19.20;99.90
1468;DHT22;727;48.892;9.544;2022-10-16T16:12:13;19.10;99.90
1468;DHT22;727;48.892;9.544;2022-10-16T16:14:40;18.90;99.90
1468;DHT22;727;48.892;9.544;2022-10-16T16:17:06;18.80;99.90
1468;DHT22;727;48.892;9.544;2022-10-16T16:19:33;18.60;99.90
1468;DHT22;727;48.892;9.544;2022-10-16T16:22:00;18.60;99.90
1468;DHT22;727;48.892;9.544;2022-10-16T16:24:28;18.40;99.90
1468;DHT22;727;48.892;9.544;2022-10-16T16:26:55;18.40;99.90
1468;DHT22;727;48.892;9.544;2022-10-16T16:29:21;18.20;99.90
1468;DHT22;727;48.892;9.544;2022-10-16T16:31:48;18.10;99.90
1468;DHT22;727;48.892;9.544;2022-10-16T16:34:15;18.00;99.90
1468;DHT22;727;48.892;9.544;2022-10-16T16:36:41;17.90;99.90
1468;DHT22;727;48.892;9.544;2022-10-16T16:39:08;17.80;99.90